createdAt,value
2019-02-19T00:03:54.993Z,76.63
2019-02-19T00:09:00.280Z,71.57
2019-02-19T00:14:05.498Z,74.10
2019-02-19T00:19:10.832Z,72.47
2019-02-19T00:24:16.101Z,72.13
2019-02-19T00:29:21.397Z,72.13
2019-02-19T00:34:26.481Z,71.37
2019-02-19T00:39:31.572Z,75.47
2019-02-19T00:44:36.913Z,74.50
2019-02-19T00:49:42.475Z,74.83
2019-02-19T00:54:47.944Z,71.73
2019-02-19T00:59:53.588Z,73.77
2019-02-19T01:04:59.986Z,72.87
2019-02-19T01:10:07.097Z,72.13
2019-02-19T01:15:12.449Z,76.30
2019-02-19T01:20:18.010Z,71.83
2019-02-19T01:25:23.213Z,77.23
2019-02-19T01:30:28.569Z,74.27
2019-02-19T01:35:33.935Z,70.70
2019-02-19T01:40:39.140Z,72.70
2019-02-19T01:45:45.239Z,73.67
2019-02-19T01:50:50.391Z,77.07
2019-02-19T01:55:55.699Z,80.60
2019-02-19T02:01:01.199Z,79.37
2019-02-19T02:06:06.548Z,77.20
2019-02-19T02:11:11.704Z,70.97
2019-02-19T02:16:17.053Z,73.33
2019-02-19T02:21:22.322Z,71.80
2019-02-19T02:26:27.570Z,74.33
2019-02-19T02:31:33.346Z,70.07
2019-02-19T02:36:38.804Z,66.13
2019-02-19T02:41:44.207Z,64.47
2019-02-19T02:46:49.541Z,68.53
2019-02-19T02:51:54.775Z,71.70
2019-02-19T02:57:00.247Z,72.00
2019-02-19T03:02:05.601Z,67.43
2019-02-19T03:07:12.526Z,60.30
2019-02-19T03:12:17.892Z,63.47
2019-02-19T03:17:23.115Z,61.27
2019-02-19T03:22:29.609Z,63.27
2019-02-19T03:27:35.048Z,65.07
2019-02-19T03:32:40.431Z,62.23
2019-02-19T03:37:45.688Z,64.70
2019-02-19T03:42:51.048Z,61.57
2019-02-19T03:47:56.480Z,59.77
2019-02-19T03:53:01.945Z,66.50
2019-02-19T03:58:07.612Z,60.47
2019-02-19T04:03:12.877Z,58.77
2019-02-19T04:08:18.228Z,60.87
2019-02-19T04:13:23.726Z,59.30
2019-02-19T04:18:29.044Z,60.83
2019-02-19T04:23:34.615Z,59.77
2019-02-19T04:28:40.288Z,58.77
2019-02-19T04:33:45.638Z,59.83
2019-02-19T04:38:50.795Z,61.53
2019-02-19T04:43:56.060Z,61.50
2019-02-19T04:49:01.581Z,61.27
2019-02-19T04:54:06.927Z,62.43
2019-02-19T04:59:12.285Z,61.73
2019-02-19T05:04:17.481Z,65.40
2019-02-19T05:09:22.828Z,95.90
2019-02-19T05:14:28.095Z,97.63
2019-02-19T05:19:33.875Z,72.50
2019-02-19T05:24:39.330Z,64.27
2019-02-19T05:29:44.583Z,65.00
2019-02-19T05:34:50.050Z,61.47
2019-02-19T05:39:55.414Z,62.17
2019-02-19T05:45:00.818Z,58.07
2019-02-19T05:50:08.601Z,61.53
2019-02-19T05:55:13.942Z,64.67
2019-02-19T06:00:20.428Z,66.57
2019-02-19T06:05:25.774Z,67.63
2019-02-19T06:10:31.027Z,66.87
2019-02-19T06:15:36.396Z,67.83
2019-02-19T06:20:41.855Z,66.23
2019-02-19T06:25:48.027Z,70.97
2019-02-19T06:30:53.204Z,66.70
2019-02-19T06:35:58.545Z,72.97
2019-02-19T06:41:04.531Z,70.67
2019-02-19T06:46:09.993Z,72.37
2019-02-19T06:51:15.373Z,71.77
2019-02-19T06:56:20.724Z,71.90
2019-02-19T07:01:27.910Z,68.70
2019-02-19T07:06:33.007Z,60.60
2019-02-19T07:11:38.307Z,63.97
2019-02-19T07:16:43.668Z,68.27
2019-02-19T07:21:48.819Z,70.50
2019-02-19T07:26:54.587Z,132.87
2019-02-19T07:31:59.952Z,87.43
2019-02-19T07:37:05.305Z,96.40
2019-02-19T07:42:10.397Z,70.40
2019-02-19T07:47:24.262Z,82.93
2019-02-19T07:52:22.517Z,85.70
2019-02-19T07:57:27.963Z,84.47
2019-02-19T08:02:33.437Z,86.10
2019-02-19T08:07:39.001Z,66.33
2019-02-19T08:12:44.366Z,61.70
2019-02-19T08:17:49.725Z,60.93
2019-02-19T08:22:54.900Z,56.93
2019-02-19T08:28:00.241Z,54.23
2019-02-19T08:33:05.633Z,54.33
2019-02-19T08:38:10.762Z,46.37
2019-02-19T08:43:16.779Z,43.60
2019-02-19T08:48:21.972Z,40.27
2019-02-19T08:53:27.321Z,40.87
2019-02-19T08:58:32.584Z,41.93
2019-02-19T09:03:37.841Z,43.03
2019-02-19T09:08:43.441Z,45.10
2019-02-19T09:13:48.824Z,44.60
2019-02-19T09:18:54.439Z,42.30
2019-02-19T09:23:59.683Z,40.13
2019-02-19T09:29:05.057Z,37.00
2019-02-19T09:34:10.541Z,36.60
2019-02-19T09:39:16.173Z,39.07
2019-02-19T09:44:21.631Z,36.53
2019-02-19T09:49:26.989Z,34.83
2019-02-19T09:54:32.444Z,35.50
2019-02-19T09:59:37.708Z,34.33
2019-02-19T10:04:43.276Z,35.17
2019-02-19T10:09:48.641Z,34.50
2019-02-19T10:14:54.092Z,37.60
2019-02-19T10:19:59.740Z,39.73
2019-02-19T10:25:11.907Z,35.80
2019-02-19T10:30:20.862Z,36.20
2019-02-19T10:35:26.380Z,34.27
2019-02-19T10:40:31.941Z,35.47
2019-02-19T10:45:37.416Z,32.80
2019-02-19T10:50:42.558Z,40.20
2019-02-19T10:55:47.640Z,34.97
2019-02-19T11:00:53.071Z,57.17
2019-02-19T11:05:58.631Z,43.53
2019-02-19T11:11:03.887Z,30.37
2019-02-19T11:16:09.013Z,31.13
2019-02-19T11:21:19.488Z,30.33
2019-02-19T11:26:21.417Z,29.33
2019-02-19T11:31:26.762Z,28.93
2019-02-19T11:36:32.123Z,28.60
2019-02-19T11:41:37.171Z,29.50
2019-02-19T11:46:42.441Z,29.17
2019-02-19T11:51:47.687Z,41.70
2019-02-19T11:56:53.040Z,29.07
2019-02-19T12:01:58.994Z,29.93
2019-02-19T12:07:04.375Z,27.57
2019-02-19T12:12:09.626Z,27.63
2019-02-19T12:17:14.894Z,26.37
2019-02-19T12:22:20.138Z,27.13
2019-02-19T12:27:25.393Z,27.90
2019-02-19T12:32:30.663Z,23.93
2019-02-19T12:37:36.041Z,24.67
2019-02-19T12:42:41.367Z,24.97
2019-02-19T12:47:46.652Z,25.90
2019-02-19T12:52:51.987Z,25.57
2019-02-19T12:57:57.763Z,24.97
2019-02-19T13:03:03.434Z,26.07
2019-02-19T13:08:08.685Z,23.17
2019-02-19T13:13:14.077Z,25.33
2019-02-19T13:18:19.294Z,24.00
2019-02-19T13:23:24.581Z,21.57
2019-02-19T13:28:30.838Z,22.00
2019-02-19T13:33:36.100Z,21.53
2019-02-19T13:38:41.453Z,22.00
2019-02-19T13:43:46.700Z,19.07
2019-02-19T13:48:52.276Z,18.80
2019-02-19T13:53:59.360Z,16.57
2019-02-19T13:59:04.827Z,12.23
2019-02-19T14:04:09.980Z,12.03
2019-02-19T14:09:15.455Z,11.53
2019-02-19T14:14:25.524Z,33.80
2019-02-19T14:19:47.668Z,28.87
2019-02-19T14:25:03.262Z,11.73
2019-02-19T14:30:27.859Z,14.37
2019-02-19T14:35:40.502Z,15.53
2019-02-19T14:41:03.472Z,13.23
2019-02-19T14:46:10.473Z,11.50
2019-02-19T14:51:26.481Z,10.17
2019-02-19T14:56:42.495Z,10.23
2019-02-19T15:02:05.914Z,9.73
2019-02-19T15:07:15.271Z,25.07
2019-02-19T15:12:40.547Z,11.63
2019-02-19T15:17:59.624Z,10.20
2019-02-19T15:23:24.157Z,10.77
2019-02-19T15:28:43.384Z,10.63
2019-02-19T15:34:07.106Z,20.43
2019-02-19T15:39:32.337Z,14.97
2019-02-19T15:44:48.134Z,43.33
2019-02-19T15:49:54.939Z,16.37
2019-02-19T15:55:18.318Z,17.00
2019-02-19T16:00:25.213Z,19.63
2019-02-19T16:05:34.871Z,20.27
2019-02-19T16:10:44.735Z,23.77
2019-02-19T16:16:09.761Z,17.23
2019-02-19T16:21:22.585Z,19.27
2019-02-19T16:26:35.430Z,17.47
2019-02-19T16:31:42.421Z,15.73
2019-02-19T16:36:49.510Z,17.17
2019-02-19T16:41:58.834Z,17.90
2019-02-19T16:47:08.628Z,20.90
2019-02-19T16:52:30.669Z,21.73
2019-02-19T16:57:46.583Z,19.97
2019-02-19T17:02:53.709Z,24.13
2019-02-19T17:08:00.877Z,22.50
2019-02-19T17:13:23.146Z,22.20
2019-02-19T17:18:45.212Z,23.87
2019-02-19T17:23:52.087Z,28.43
2019-02-19T17:29:05.131Z,34.60
2019-02-19T17:34:28.379Z,39.23
2019-02-19T17:39:39.699Z,36.43
2019-02-19T17:44:52.648Z,21.47
2019-02-19T17:50:05.265Z,18.90
2019-02-19T17:55:12.184Z,17.30
2019-02-19T18:00:19.278Z,15.63
2019-02-19T18:05:26.385Z,14.27
2019-02-19T18:10:39.398Z,16.03
2019-02-19T18:15:46.270Z,17.53
2019-02-19T18:20:51.323Z,20.63
2019-02-19T18:25:56.596Z,17.17
2019-02-19T18:31:01.917Z,16.90
2019-02-19T18:36:07.207Z,18.97
2019-02-19T18:41:12.299Z,20.83
2019-02-19T18:46:17.971Z,21.10
2019-02-19T18:51:23.201Z,26.00
2019-02-19T18:56:28.649Z,22.70
2019-02-19T19:01:34.017Z,86.67
2019-02-19T19:06:39.166Z,34.57
2019-02-19T19:11:44.419Z,23.70
2019-02-19T19:16:49.673Z,17.20
2019-02-19T19:21:55.237Z,14.57
2019-02-19T19:27:00.700Z,14.47
2019-02-19T19:32:05.924Z,12.53
2019-02-19T19:37:11.219Z,13.70
2019-02-19T19:42:16.561Z,16.77
2019-02-19T19:47:22.138Z,13.70
2019-02-19T19:52:27.492Z,13.70
2019-02-19T19:57:32.854Z,13.07
2019-02-19T20:02:39.447Z,13.50
2019-02-19T20:07:44.731Z,19.73
2019-02-19T20:12:49.950Z,13.13
2019-02-19T20:17:55.322Z,14.90
2019-02-19T20:23:00.577Z,10.90
2019-02-19T20:28:06.124Z,9.40
2019-02-19T20:33:11.538Z,9.03
2019-02-19T20:38:16.601Z,8.47
2019-02-19T20:43:21.909Z,8.30
2019-02-19T20:48:29.606Z,8.70
2019-02-19T20:53:34.975Z,8.47
2019-02-19T20:58:40.179Z,8.77
2019-02-19T21:03:45.503Z,8.77
2019-02-19T21:08:50.937Z,9.40
2019-02-19T21:13:56.182Z,9.00
2019-02-19T21:19:03.087Z,9.23
2019-02-19T21:24:08.536Z,12.30
2019-02-19T21:29:13.924Z,10.80
2019-02-19T21:34:19.576Z,10.83
2019-02-19T21:39:24.701Z,13.43
2019-02-19T21:44:30.414Z,10.77
2019-02-19T21:49:35.782Z,10.77
2019-02-19T21:54:41.214Z,10.90
2019-02-19T21:59:46.784Z,11.83
2019-02-19T22:04:52.499Z,8.80
2019-02-19T22:09:57.810Z,10.47
2019-02-19T22:15:03.374Z,8.00
2019-02-19T22:20:38.734Z,9.43
2019-02-19T22:25:43.964Z,8.60
2019-02-19T22:30:49.250Z,9.00
2019-02-19T22:35:54.463Z,10.30
2019-02-19T22:40:59.976Z,12.53
2019-02-19T22:46:05.232Z,6.27
2019-02-19T22:51:10.500Z,6.03
2019-02-19T22:56:17.679Z,11.00
2019-02-19T23:01:34.000Z,8.90
2019-02-19T23:06:39.361Z,6.53
2019-02-19T23:11:44.761Z,6.77
2019-02-19T23:16:50.079Z,6.10
2019-02-19T23:21:55.459Z,5.67
2019-02-19T23:27:02.113Z,4.90
2019-02-19T23:32:07.683Z,4.97
2019-02-19T23:37:13.252Z,4.60
2019-02-19T23:42:18.616Z,5.97
2019-02-19T23:47:23.969Z,4.60
2019-02-19T23:52:30.605Z,4.73
2019-02-19T23:57:36.015Z,4.30
